createdAt,value
2023-02-24T00:02:56.310Z,74
2023-02-24T00:08:12.484Z,72
2023-02-24T00:13:29.524Z,75
2023-02-24T00:18:46.180Z,71
2023-02-24T00:24:02.389Z,82
2023-02-24T00:29:19.216Z,85
2023-02-24T00:34:35.892Z,89
2023-02-24T00:39:52.738Z,90
2023-02-24T00:45:09.741Z,96
2023-02-24T00:50:26.204Z,79
2023-02-24T00:55:43.564Z,76
2023-02-24T01:01:00.416Z,70
2023-02-24T01:06:17.406Z,74
2023-02-24T01:11:34.499Z,81
2023-02-24T01:16:51.260Z,75
2023-02-24T01:22:08.246Z,72
2023-02-24T01:27:24.875Z,68
2023-02-24T01:32:41.982Z,72
2023-02-24T01:37:58.827Z,75
2023-02-24T01:43:15.036Z,78
2023-02-24T01:48:31.577Z,74
2023-02-24T01:53:47.748Z,72
2023-02-24T01:59:04.527Z,68
2023-02-24T02:04:21.382Z,63
2023-02-24T02:09:37.787Z,70
2023-02-24T02:14:54.567Z,71
2023-02-24T02:20:11.357Z,67
2023-02-24T02:25:28.356Z,68
2023-02-24T02:30:45.063Z,64
2023-02-24T02:36:01.425Z,62
2023-02-24T02:41:17.958Z,62
2023-02-24T02:46:34.316Z,61
2023-02-24T02:51:50.793Z,64
2023-02-24T02:57:07.773Z,72
2023-02-24T03:02:24.220Z,73
2023-02-24T03:07:41.169Z,68
2023-02-24T03:12:57.332Z,58
2023-02-24T03:18:14.147Z,65
2023-02-24T03:23:30.594Z,63
2023-02-24T03:28:47.575Z,65
2023-02-24T03:34:04.270Z,63
2023-02-24T03:39:20.671Z,71
2023-02-24T03:44:37.671Z,64
2023-02-24T03:49:54.130Z,61
2023-02-24T03:55:10.279Z,60
2023-02-24T04:00:27.171Z,69
2023-02-24T04:05:43.567Z,59
2023-02-24T04:10:59.982Z,66
2023-02-24T04:16:16.438Z,58
2023-02-24T04:21:33.440Z,65
2023-02-24T04:26:49.842Z,54
2023-02-24T04:32:07.066Z,61
2023-02-24T04:37:23.482Z,61
2023-02-24T04:42:39.905Z,60
2023-02-24T04:47:56.659Z,61
2023-02-24T04:53:13.296Z,63
2023-02-24T04:58:30.353Z,64
2023-02-24T05:03:46.831Z,62
2023-02-24T05:09:03.279Z,71
2023-02-24T05:14:20.084Z,64
2023-02-24T05:19:36.537Z,65
2023-02-24T05:24:53.320Z,69
2023-02-24T05:30:10.363Z,67
2023-02-24T05:35:26.824Z,64
2023-02-24T05:40:43.804Z,74
2023-02-24T05:46:00.273Z,74
2023-02-24T05:51:17.537Z,72
2023-02-24T05:56:34.046Z,72
2023-02-24T06:01:51.106Z,72
2023-02-24T06:07:07.483Z,73
2023-02-24T06:12:24.294Z,74
2023-02-24T06:17:40.938Z,72
2023-02-24T06:22:57.447Z,76
2023-02-24T06:28:14.322Z,86
2023-02-24T06:33:31.396Z,79
2023-02-24T06:38:47.988Z,77
2023-02-24T06:44:05.278Z,74
2023-02-24T06:49:21.453Z,73
2023-02-24T06:54:38.734Z,76
2023-02-24T06:59:55.235Z,78
2023-02-24T07:05:12.306Z,81
2023-02-24T07:10:29.342Z,88
2023-02-24T07:15:45.571Z,81
2023-02-24T07:21:02.197Z,78
2023-02-24T07:26:19.303Z,81
2023-02-24T07:31:35.755Z,86
2023-02-24T07:36:52.049Z,85
2023-02-24T07:42:08.987Z,85
2023-02-24T07:47:25.685Z,83
2023-02-24T07:52:41.911Z,80
2023-02-24T07:57:58.395Z,76
2023-02-24T08:05:49.051Z,77
2023-02-24T08:11:05.659Z,80
2023-02-24T08:16:22.710Z,81
2023-02-24T08:21:39.142Z,79
2023-02-24T08:26:55.928Z,84
2023-02-24T08:32:12.859Z,79
2023-02-24T08:37:29.529Z,70
2023-02-24T08:42:45.925Z,73
2023-02-24T08:48:02.171Z,69
2023-02-24T08:53:18.627Z,65
2023-02-24T08:58:35.030Z,64
2023-02-24T09:03:52.701Z,65
2023-02-24T09:09:09.175Z,63
2023-02-24T09:14:28.027Z,69
2023-02-24T09:19:42.597Z,67
2023-02-24T09:24:58.808Z,66
2023-02-24T09:30:15.793Z,60
2023-02-24T09:35:32.537Z,65
2023-02-24T09:40:48.794Z,64
2023-02-24T09:51:22.580Z,62
2023-02-24T09:56:38.120Z,65
2023-02-24T10:01:54.305Z,65
2023-02-24T10:07:11.265Z,67
2023-02-24T10:12:27.745Z,68
2023-02-24T10:17:44.306Z,62
2023-02-24T10:23:00.948Z,72
2023-02-24T10:28:17.562Z,56
2023-02-24T10:33:33.770Z,55
2023-02-24T10:38:50.798Z,60
2023-02-24T10:44:07.228Z,62
2023-02-24T10:49:23.352Z,59
2023-02-24T10:54:39.952Z,48
2023-02-24T10:59:56.389Z,49
2023-02-24T11:05:13.341Z,53
2023-02-24T11:10:30.545Z,54
2023-02-24T11:15:47.096Z,60
2023-02-24T11:21:03.413Z,58
2023-02-24T11:26:19.614Z,54
2023-02-24T11:31:36.937Z,57
2023-02-24T11:36:52.894Z,56
2023-02-24T11:42:09.530Z,52
2023-02-24T11:47:26.461Z,58
2023-02-24T11:52:42.584Z,61
2023-02-24T11:57:59.607Z,57
2023-02-24T12:03:17.102Z,75
2023-02-24T12:08:34.175Z,57
2023-02-24T12:13:50.316Z,55
2023-02-24T12:19:06.483Z,56
2023-02-24T12:24:23.532Z,57
2023-02-24T12:29:40.650Z,54
2023-02-24T12:34:57.623Z,58
2023-02-24T12:40:14.081Z,55
2023-02-24T12:45:30.736Z,69
2023-02-24T12:50:46.854Z,51
2023-02-24T12:56:03.267Z,52
2023-02-24T13:01:20.683Z,56
2023-02-24T13:06:37.445Z,53
2023-02-24T13:11:54.088Z,56
2023-02-24T13:17:11.299Z,60
2023-02-24T13:22:27.483Z,59
2023-02-24T13:27:43.590Z,56
2023-02-24T13:33:00.149Z,56
2023-02-24T13:38:17.029Z,57
2023-02-24T13:43:33.983Z,58
2023-02-24T13:48:51.029Z,61
2023-02-24T13:54:08.066Z,62
2023-02-24T13:59:24.452Z,55
2023-02-24T14:04:40.574Z,62
2023-02-24T14:09:57.795Z,62
2023-02-24T14:15:14.187Z,66
2023-02-24T14:20:30.801Z,60
2023-02-24T14:25:47.528Z,66
2023-02-24T14:31:04.383Z,77
2023-02-24T14:36:21.623Z,65
2023-02-24T14:41:38.272Z,65
2023-02-24T14:46:55.304Z,65
2023-02-24T14:52:11.464Z,58
2023-02-24T14:57:28.043Z,65
2023-02-24T15:02:44.537Z,66
2023-02-24T15:08:00.920Z,77
2023-02-24T15:13:17.823Z,69
2023-02-24T15:18:34.597Z,75
2023-02-24T15:23:51.619Z,63
2023-02-24T15:29:08.801Z,63
2023-02-24T15:34:25.571Z,64
2023-02-24T15:39:42.676Z,65
2023-02-24T15:44:59.830Z,68
2023-02-24T15:50:16.936Z,73
2023-02-24T15:55:33.432Z,72
2023-02-24T16:00:50.448Z,73
2023-02-24T16:06:06.848Z,67
2023-02-24T16:11:23.009Z,68
2023-02-24T16:16:39.985Z,72
2023-02-24T16:21:56.603Z,70
2023-02-24T16:27:13.034Z,70
2023-02-24T16:32:29.654Z,68
2023-02-24T16:37:46.128Z,73
2023-02-24T16:43:02.878Z,72
2023-02-24T16:48:19.354Z,66
2023-02-24T16:53:35.624Z,64
2023-02-24T16:58:51.999Z,60
2023-02-24T17:04:09.592Z,65
2023-02-24T17:09:25.689Z,56
2023-02-24T17:14:42.063Z,59
2023-02-24T17:19:59.088Z,56
2023-02-24T17:25:16.987Z,68
2023-02-24T17:30:34.876Z,63
2023-02-24T17:35:51.006Z,58
2023-02-24T17:41:08.148Z,59
2023-02-24T17:46:25.605Z,61
2023-02-24T17:51:42.142Z,62
2023-02-24T17:56:58.356Z,62
2023-02-24T18:02:15.392Z,60
2023-02-24T18:07:32.357Z,64
2023-02-24T18:12:49.064Z,57
2023-02-24T18:18:05.735Z,69
2023-02-24T18:23:22.747Z,68
2023-02-24T18:28:39.745Z,65
2023-02-24T18:33:56.232Z,70
2023-02-24T18:39:13.185Z,66
2023-02-24T18:44:29.597Z,69
2023-02-24T18:49:46.662Z,76
2023-02-24T18:55:03.402Z,72
2023-02-24T19:00:19.584Z,70
2023-02-24T19:05:38.687Z,74
2023-02-24T19:10:52.716Z,77
2023-02-24T19:16:09.694Z,79
2023-02-24T19:21:26.639Z,74
2023-02-24T19:26:43.030Z,66
2023-02-24T19:31:59.958Z,66
2023-02-24T19:37:16.777Z,60
2023-02-24T19:42:33.827Z,62
2023-02-24T19:47:50.294Z,64
2023-02-24T19:53:06.912Z,59
2023-02-24T19:58:23.087Z,68
2023-02-24T20:03:39.544Z,60
2023-02-24T20:08:56.238Z,62
2023-02-24T20:14:13.250Z,62
2023-02-24T20:19:30.137Z,66
2023-02-24T20:24:46.629Z,63
2023-02-24T20:30:03.650Z,62
2023-02-24T20:35:21.505Z,64
2023-02-24T20:40:38.889Z,64
2023-02-24T20:45:55.426Z,62
2023-02-24T20:51:12.348Z,65
2023-02-24T20:56:28.745Z,64
2023-02-24T21:01:47.316Z,77
2023-02-24T21:07:01.942Z,63
2023-02-24T21:12:18.941Z,70
2023-02-24T21:17:35.745Z,78
2023-02-24T21:22:52.512Z,72
2023-02-24T21:28:08.676Z,72
2023-02-24T21:33:25.655Z,72
2023-02-24T21:38:42.102Z,78
2023-02-24T21:43:58.310Z,74
2023-02-24T21:49:14.748Z,68
2023-02-24T21:54:30.714Z,68
2023-02-24T21:59:47.182Z,73
2023-02-24T22:05:03.777Z,75
2023-02-24T22:10:20.629Z,74
2023-02-24T22:15:37.017Z,72
2023-02-24T22:20:53.268Z,76
2023-02-24T22:26:09.779Z,67
2023-02-24T22:31:26.004Z,66
2023-02-24T22:36:42.351Z,71
2023-02-24T22:41:58.747Z,65
2023-02-24T22:47:15.490Z,66
2023-02-24T22:52:32.151Z,56
2023-02-24T22:57:48.912Z,63
2023-02-24T23:03:05.331Z,61
2023-02-24T23:08:22.352Z,63
2023-02-24T23:13:38.775Z,61
2023-02-24T23:18:55.047Z,61
2023-02-24T23:24:11.506Z,64
2023-02-24T23:29:27.975Z,65
2023-02-24T23:34:44.992Z,68
2023-02-24T23:40:01.198Z,64
2023-02-24T23:45:18.100Z,67
2023-02-24T23:50:35.110Z,64
2023-02-24T23:55:51.554Z,59
